sensor_id;sensor_type;location;lat;lon;timestamp;temperature;humidity
79786;DHT22;69265;43.614;13.518;2023-05-03T16:39:55;19.00;67.10
79786;DHT22;69265;43.614;13.518;2023-05-03T16:42:21;18.50;65.90
79786;DHT22;69265;43.614;13.518;2023-05-03T16:44:46;18.00;66.20
79786;DHT22;69265;43.614;13.518;2023-05-03T16:47:12;17.50;67.00
79786;DHT22;69265;43.614;13.518;2023-05-03T16:49:37;17.20;67.80
79786;DHT22;69265;43.614;13.518;2023-05-03T16:52:03;16.90;68.30
79786;DHT22;69265;43.614;13.518;2023-05-03T16:54:29;16.60;68.80
79786;DHT22;69265;43.614;13.518;2023-05-03T16:56:55;16.50;69.20
79786;DHT22;69265;43.614;13.518;2023-05-03T16:59:20;16.30;69.60
79786;DHT22;69265;43.614;13.518;2023-05-03T17:01:46;16.20;69.70
79786;DHT22;69265;43.614;13.518;2023-05-03T17:04:12;16.10;70.10
79786;DHT22;69265;43.614;13.518;2023-05-03T17:06:38;16.00;70.30
79786;DHT22;69265;43.614;13.518;2023-05-03T17:09:03;16.00;70.30
79786;DHT22;69265;43.614;13.518;2023-05-03T17:11:29;15.90;70.70
79786;DHT22;69265;43.614;13.518;2023-05-03T17:13:55;15.80;71.00
79786;DHT22;69265;43.614;13.518;2023-05-03T17:16:22;15.80;70.90
79786;DHT22;69265;43.614;13.518;2023-05-03T17:18:47;15.70;70.50
79786;DHT22;69265;43.614;13.518;2023-05-03T17:21:13;15.60;70.20
79786;DHT22;69265;43.614;13.518;2023-05-03T17:23:39;15.60;70.20
79786;DHT22;69265;43.614;13.518;2023-05-03T17:26:05;15.60;70.10
79786;DHT22;69265;43.614;13.518;2023-05-03T17:28:32;15.60;69.90
79786;DHT22;69265;43.614;13.518;2023-05-03T17:30:58;15.60;69.30
79786;DHT22;69265;43.614;13.518;2023-05-03T17:33:24;15.60;69.20
79786;DHT22;69265;43.614;13.518;2023-05-03T17:35:53;15.50;69.10
79786;DHT22;69265;43.614;13.518;2023-05-03T17:38:22;15.50;69.00
79786;DHT22;69265;43.614;13.518;2023-05-03T17:40:48;15.50;69.20
79786;DHT22;69265;43.614;13.518;2023-05-03T17:43:14;15.50;69.50
79786;DHT22;69265;43.614;13.518;2023-05-03T17:45:42;15.50;69.80
79786;DHT22;69265;43.614;13.518;2023-05-03T17:48:08;15.50;70.00
79786;DHT22;69265;43.614;13.518;2023-05-03T17:50:34;15.50;70.20
79786;DHT22;69265;43.614;13.518;2023-05-03T17:53:00;15.40;70.40
79786;DHT22;69265;43.614;13.518;2023-05-03T17:55:25;15.40;70.60
79786;DHT22;69265;43.614;13.518;2023-05-03T17:57:52;15.30;70.90
79786;DHT22;69265;43.614;13.518;2023-05-03T18:00:17;15.30;71.20
79786;DHT22;69265;43.614;13.518;2023-05-03T18:02:45;15.30;71.50
79786;DHT22;69265;43.614;13.518;2023-05-03T18:05:11;15.20;71.90
79786;DHT22;69265;43.614;13.518;2023-05-03T18:07:37;15.20;72.50
79786;DHT22;69265;43.614;13.518;2023-05-03T18:10:03;15.20;72.80
79786;DHT22;69265;43.614;13.518;2023-05-03T18:12:29;15.10;72.80
79786;DHT22;69265;43.614;13.518;2023-05-03T18:14:55;15.00;73.00
79786;DHT22;69265;43.614;13.518;2023-05-03T18:17:24;15.00;73.10
79786;DHT22;69265;43.614;13.518;2023-05-03T18:19:50;15.00;73.50
79786;DHT22;69265;43.614;13.518;2023-05-03T18:22:15;15.00;74.00
79786;DHT22;69265;43.614;13.518;2023-05-03T18:24:41;14.90;74.10
79786;DHT22;69265;43.614;13.518;2023-05-03T18:27:07;14.90;74.20
79786;DHT22;69265;43.614;13.518;2023-05-03T18:32:18;14.90;74.40
79786;DHT22;69265;43.614;13.518;2023-05-03T18:34:43;14.80;74.60
79786;DHT22;69265;43.614;13.518;2023-05-03T18:37:27;14.80;74.70
79786;DHT22;69265;43.614;13.518;2023-05-03T18:39:53;14.80;74.90
79786;DHT22;69265;43.614;13.518;2023-05-03T18:42:18;14.80;75.00
79786;DHT22;69265;43.614;13.518;2023-05-03T18:44:44;14.70;75.20
79786;DHT22;69265;43.614;13.518;2023-05-03T18:47:10;14.70;75.40
79786;DHT22;69265;43.614;13.518;2023-05-03T18:49:37;14.70;75.50
79786;DHT22;69265;43.614;13.518;2023-05-03T18:52:03;14.70;75.50
79786;DHT22;69265;43.614;13.518;2023-05-03T18:54:29;14.60;75.50
79786;DHT22;69265;43.614;13.518;2023-05-03T18:56:57;14.60;75.50
79786;DHT22;69265;43.614;13.518;2023-05-03T18:59:22;14.60;75.70
79786;DHT22;69265;43.614;13.518;2023-05-03T19:01:48;14.60;75.70
79786;DHT22;69265;43.614;13.518;2023-05-03T19:04:15;14.60;75.80
79786;DHT22;69265;43.614;13.518;2023-05-03T19:06:40;14.60;75.80
79786;DHT22;69265;43.614;13.518;2023-05-03T19:09:06;14.60;75.90
79786;DHT22;69265;43.614;13.518;2023-05-03T19:11:39;14.60;75.90
79786;DHT22;69265;43.614;13.518;2023-05-03T19:14:05;14.50;75.90
79786;DHT22;69265;43.614;13.518;2023-05-03T19:16:31;14.50;76.00
79786;DHT22;69265;43.614;13.518;2023-05-03T19:18:57;14.50;76.00
79786;DHT22;69265;43.614;13.518;2023-05-03T19:21:23;14.50;75.90
79786;DHT22;69265;43.614;13.518;2023-05-03T19:23:48;14.50;75.80
79786;DHT22;69265;43.614;13.518;2023-05-03T19:26:14;14.50;75.80
79786;DHT22;69265;43.614;13.518;2023-05-03T19:28:40;14.50;75.70
79786;DHT22;69265;43.614;13.518;2023-05-03T19:31:05;14.50;75.70
79786;DHT22;69265;43.614;13.518;2023-05-03T19:33:31;14.50;75.60
79786;DHT22;69265;43.614;13.518;2023-05-03T19:35:57;14.50;75.50
79786;DHT22;69265;43.614;13.518;2023-05-03T19:38:22;14.50;75.30
79786;DHT22;69265;43.614;13.518;2023-05-03T19:40:57;14.50;75.40
79786;DHT22;69265;43.614;13.518;2023-05-03T19:43:22;14.40;75.30
79786;DHT22;69265;43.614;13.518;2023-05-03T19:45:48;14.50;75.20
79786;DHT22;69265;43.614;13.518;2023-05-03T19:48:14;14.40;75.20
79786;DHT22;69265;43.614;13.518;2023-05-03T19:50:40;14.40;75.10
79786;DHT22;69265;43.614;13.518;2023-05-03T19:53:07;14.40;75.10
79786;DHT22;69265;43.614;13.518;2023-05-03T19:55:32;14.40;75.10
79786;DHT22;69265;43.614;13.518;2023-05-03T19:57:58;14.40;75.20
79786;DHT22;69265;43.614;13.518;2023-05-03T20:00:23;14.30;75.30
79786;DHT22;69265;43.614;13.518;2023-05-03T20:02:52;14.30;75.40
79786;DHT22;69265;43.614;13.518;2023-05-03T20:05:17;14.30;75.50
79786;DHT22;69265;43.614;13.518;2023-05-03T20:07:43;14.30;75.70
79786;DHT22;69265;43.614;13.518;2023-05-03T20:10:09;14.30;75.90
79786;DHT22;69265;43.614;13.518;2023-05-03T20:12:34;14.30;76.00
79786;DHT22;69265;43.614;13.518;2023-05-03T20:15:00;14.30;76.10
79786;DHT22;69265;43.614;13.518;2023-05-03T20:17:25;14.30;76.10
79786;DHT22;69265;43.614;13.518;2023-05-03T20:19:51;14.30;76.30
79786;DHT22;69265;43.614;13.518;2023-05-03T20:22:17;14.20;76.40
79786;DHT22;69265;43.614;13.518;2023-05-03T20:24:42;14.20;76.50
79786;DHT22;69265;43.614;13.518;2023-05-03T20:27:08;14.20;76.60
79786;DHT22;69265;43.614;13.518;2023-05-03T20:29:33;14.20;76.70
79786;DHT22;69265;43.614;13.518;2023-05-03T20:31:59;14.20;76.70
79786;DHT22;69265;43.614;13.518;2023-05-03T20:34:25;14.20;76.60
79786;DHT22;69265;43.614;13.518;2023-05-03T20:36:51;14.20;76.60
79786;DHT22;69265;43.614;13.518;2023-05-03T20:39:17;14.20;76.70
79786;DHT22;69265;43.614;13.518;2023-05-03T20:41:42;14.20;76.80
79786;DHT22;69265;43.614;13.518;2023-05-03T20:44:08;14.20;76.90
79786;DHT22;69265;43.614;13.518;2023-05-03T20:46:34;14.20;77.10
79786;DHT22;69265;43.614;13.518;2023-05-03T20:48:59;14.20;76.90
79786;DHT22;69265;43.614;13.518;2023-05-03T20:51:25;14.20;76.90
79786;DHT22;69265;43.614;13.518;2023-05-03T20:53:51;14.20;76.70
79786;DHT22;69265;43.614;13.518;2023-05-03T20:56:17;14.20;76.70
79786;DHT22;69265;43.614;13.518;2023-05-03T20:58:43;14.20;76.60
79786;DHT22;69265;43.614;13.518;2023-05-03T21:01:09;14.20;76.50
79786;DHT22;69265;43.614;13.518;2023-05-03T21:03:35;14.10;76.50
79786;DHT22;69265;43.614;13.518;2023-05-03T21:06:00;14.10;76.30
79786;DHT22;69265;43.614;13.518;2023-05-03T21:08:26;14.10;76.20
79786;DHT22;69265;43.614;13.518;2023-05-03T21:10:52;14.10;76.10
79786;DHT22;69265;43.614;13.518;2023-05-03T21:13:17;14.10;76.00
79786;DHT22;69265;43.614;13.518;2023-05-03T21:15:43;14.10;75.90
79786;DHT22;69265;43.614;13.518;2023-05-03T21:18:09;14.10;75.70
79786;DHT22;69265;43.614;13.518;2023-05-03T21:20:35;14.10;75.70
79786;DHT22;69265;43.614;13.518;2023-05-03T21:23:01;14.10;75.60
79786;DHT22;69265;43.614;13.518;2023-05-03T21:25:27;14.10;75.50
79786;DHT22;69265;43.614;13.518;2023-05-03T21:27:53;14.10;75.30
79786;DHT22;69265;43.614;13.518;2023-05-03T21:30:19;14.10;75.30
79786;DHT22;69265;43.614;13.518;2023-05-03T21:32:45;14.00;75.20
79786;DHT22;69265;43.614;13.518;2023-05-03T21:35:14;14.00;75.20
79786;DHT22;69265;43.614;13.518;2023-05-03T21:37:40;14.00;75.30
79786;DHT22;69265;43.614;13.518;2023-05-03T21:40:06;14.00;75.30
79786;DHT22;69265;43.614;13.518;2023-05-03T21:42:31;14.00;75.20
79786;DHT22;69265;43.614;13.518;2023-05-03T21:44:57;13.90;75.20
79786;DHT22;69265;43.614;13.518;2023-05-03T21:47:23;13.90;75.20
79786;DHT22;69265;43.614;13.518;2023-05-03T21:49:49;14.00;75.10
79786;DHT22;69265;43.614;13.518;2023-05-03T21:52:15;13.90;75.10
79786;DHT22;69265;43.614;13.518;2023-05-03T21:54:41;13.90;75.00
79786;DHT22;69265;43.614;13.518;2023-05-03T21:57:07;13.90;74.90
79786;DHT22;69265;43.614;13.518;2023-05-03T21:59:33;13.90;74.90
79786;DHT22;69265;43.614;13.518;2023-05-03T22:02:02;13.90;74.80
79786;DHT22;69265;43.614;13.518;2023-05-03T22:04:27;13.90;74.80
79786;DHT22;69265;43.614;13.518;2023-05-03T22:06:53;13.90;74.80
79786;DHT22;69265;43.614;13.518;2023-05-03T22:09:19;13.90;74.70
79786;DHT22;69265;43.614;13.518;2023-05-03T22:11:45;13.90;74.50
79786;DHT22;69265;43.614;13.518;2023-05-03T22:14:10;13.90;74.40
79786;DHT22;69265;43.614;13.518;2023-05-03T22:16:37;13.90;74.40
79786;DHT22;69265;43.614;13.518;2023-05-03T22:19:03;13.90;74.40
79786;DHT22;69265;43.614;13.518;2023-05-03T22:21:28;13.90;74.40
79786;DHT22;69265;43.614;13.518;2023-05-03T22:23:54;13.90;74.30
79786;DHT22;69265;43.614;13.518;2023-05-03T22:26:19;13.90;74.20
79786;DHT22;69265;43.614;13.518;2023-05-03T22:28:45;13.90;74.10
79786;DHT22;69265;43.614;13.518;2023-05-03T22:31:10;13.80;73.90
79786;DHT22;69265;43.614;13.518;2023-05-03T22:33:37;13.90;73.80
79786;DHT22;69265;43.614;13.518;2023-05-03T22:36:03;13.90;73.70
79786;DHT22;69265;43.614;13.518;2023-05-03T22:38:29;13.90;73.60
79786;DHT22;69265;43.614;13.518;2023-05-03T22:40:55;13.90;73.50
79786;DHT22;69265;43.614;13.518;2023-05-03T22:43:20;13.90;73.40
79786;DHT22;69265;43.614;13.518;2023-05-03T22:45:46;13.90;73.40
79786;DHT22;69265;43.614;13.518;2023-05-03T22:48:12;13.90;73.30
79786;DHT22;69265;43.614;13.518;2023-05-03T22:50:37;13.90;73.30
79786;DHT22;69265;43.614;13.518;2023-05-03T22:53:03;13.90;73.30
79786;DHT22;69265;43.614;13.518;2023-05-03T22:55:29;13.80;73.30
79786;DHT22;69265;43.614;13.518;2023-05-03T22:57:54;13.90;73.30
79786;DHT22;69265;43.614;13.518;2023-05-03T23:00:20;13.80;73.30
79786;DHT22;69265;43.614;13.518;2023-05-03T23:02:46;13.90;73.40
79786;DHT22;69265;43.614;13.518;2023-05-03T23:05:11;13.90;73.50
79786;DHT22;69265;43.614;13.518;2023-05-03T23:07:37;13.80;73.60
79786;DHT22;69265;43.614;13.518;2023-05-03T23:10:03;13.80;73.70
79786;DHT22;69265;43.614;13.518;2023-05-03T23:12:29;13.80;73.70
79786;DHT22;69265;43.614;13.518;2023-05-03T23:14:55;13.80;73.90
79786;DHT22;69265;43.614;13.518;2023-05-03T23:17:21;13.80;73.90
79786;DHT22;69265;43.614;13.518;2023-05-03T23:19:47;13.80;73.80
79786;DHT22;69265;43.614;13.518;2023-05-03T23:22:12;13.70;73.80
79786;DHT22;69265;43.614;13.518;2023-05-03T23:24:38;13.70;73.80
79786;DHT22;69265;43.614;13.518;2023-05-03T23:27:04;13.70;73.70
79786;DHT22;69265;43.614;13.518;2023-05-03T23:29:29;13.70;73.80
79786;DHT22;69265;43.614;13.518;2023-05-03T23:31:55;13.70;73.80
79786;DHT22;69265;43.614;13.518;2023-05-03T23:34:21;13.70;73.80
79786;DHT22;69265;43.614;13.518;2023-05-03T23:36:46;13.70;73.80
79786;DHT22;69265;43.614;13.518;2023-05-03T23:39:12;13.70;73.70
79786;DHT22;69265;43.614;13.518;2023-05-03T23:41:37;13.70;73.70
79786;DHT22;69265;43.614;13.518;2023-05-03T23:44:03;13.60;73.60
79786;DHT22;69265;43.614;13.518;2023-05-03T23:46:29;13.60;73.70
79786;DHT22;69265;43.614;13.518;2023-05-03T23:48:54;13.60;73.70
79786;DHT22;69265;43.614;13.518;2023-05-03T23:51:20;13.60;73.60
79786;DHT22;69265;43.614;13.518;2023-05-03T23:53:45;13.60;73.80
79786;DHT22;69265;43.614;13.518;2023-05-03T23:56:11;13.60;73.90
79786;DHT22;69265;43.614;13.518;2023-05-03T23:58:37;13.50;74.10
